CSL Niagara — VCGJ — position and weather

sailwx.info

Track history (hours):
 
Tides and Currents Weather Stations Pressure Air Temp Water Temp Dewpoint Dewpoint Depression Visibility Wind Speed Wind Dir Waves Ship Positions

CSL Niagara

ex J. W. McGiffin

Last reported at 2014-Sep-28 09:27 UTC. Time now 2014-Oct-01 14:22 UTC.
Position N 42°29' W 080°07'.

Length 225 m; draft 7.1 m.

Type: Cargo ship. MMSI: 316029000.

Date/timePositionNaut miles runAvg speedWind from/ knotsBaromVisibWave heightAir tempDewpointWater temp
2014-Sep-28 09:27N 42°29' W 080°07'1111.9
2014-Sep-28 08:33N 42°34' W 079°54'1211.9
2014-Sep-28 07:34N 42°40' W 079°40'1211.9
2014-Sep-28 06:33N 42°46' W 079°27'23 5.8
2014-Sep-28 02:34N 43°07' W 079°12'0 0.0
2014-Sep-28 01:12N 43°07' W 079°12'122 6.9
2014-Sep-27 07:25N 43°57' W 076°38'1011.6
2014-Sep-27 06:33N 44°03' W 076°27'1110.7
2014-Sep-27 05:34N 44°12' W 076°18'1010.3
2014-Sep-27 04:33N 44°15' W 076°04'84 7.4
2014-Sep-26 17:12N 45°05' W 074°30'6 8.6
2014-Sep-26 16:34N 45°09' W 074°23'6 5.7
2014-Sep-26 15:33N 45°13' W 074°17'9 8.8
2014-Sep-26 14:34N 45°13' W 074°05'8 8.0
2014-Sep-26 13:34N 45°18' W 073°56'1 1.2
2014-Sep-26 12:33N 45°19' W 073°55'6 6.0
2014-Sep-26 11:34N 45°23' W 073°49'7 6.9
2014-Sep-26 10:34N 45°24' W 073°39'4 3.6
2014-Sep-26 09:34N 45°24' W 073°34'3 3.1
2014-Sep-26 08:34N 45°26' W 073°30'4 3.7
2014-Sep-26 07:34N 45°30' W 073°31'3 3.4
2014-Sep-26 06:33N 45°33' W 073°31'6 6.5
2014-Sep-26 05:34N 45°39' W 073°28'9 8.6
2014-Sep-26 04:33N 45°47' W 073°22'9 9.1
2014-Sep-26 03:33N 45°54' W 073°14'9 9.1
2014-Sep-26 02:33N 46°02' W 073°10'9 8.6
2014-Sep-26 01:32N 46°06' W 072°58'9 8.9
2014-Sep-26 00:32N 46°13' W 072°49'9 9.5
2014-Sep-25 23:34N 46°16' W 072°37'9 9.0
2014-Sep-25 22:33N 46°23' W 072°28'9 8.7
2014-Sep-25 21:33N 46°26' W 072°17'8 8.4
2014-Sep-25 20:33N 46°33' W 072°09'7 7.3
2014-Sep-25 19:34N 46°36' W 071°59'4 0.1
2014-Sep-24 02:13N 46°38' W 071°55'910.5
2014-Sep-24 01:21N 46°34' W 072°07'910.9
2014-Sep-24 00:33N 46°27' W 072°15'1211.5
2014-Sep-23 23:33N 46°22' W 072°30'1010.3
2014-Sep-23 22:33N 46°16' W 072°42'1111.5
2014-Sep-23 21:33N 46°10' W 072°56'1111.0
2014-Sep-23 20:33N 46°03' W 073°09'1111.2
2014-Sep-23 19:33N 45°53' W 073°15'1212.0
2014-Sep-23 18:33N 45°43' W 073°26'1110.8
2014-Sep-23 17:33N 45°33' W 073°31'4 3.6
2014-Sep-23 16:33N 45°30' W 073°31'2 2.4
2014-Sep-23 15:33N 45°27' W 073°30'4 3.8
2014-Sep-23 14:33N 45°24' W 073°34'0 0.4
2014-Sep-23 13:33N 45°24' W 073°35'2 2.4
2014-Sep-23 12:33N 45°24' W 073°38'4 4.5
2014-Sep-23 11:33N 45°24' W 073°44'9 9.2
2014-Sep-23 10:33N 45°19' W 073°55'1 0.9
2014-Sep-23 09:33N 45°18' W 073°56'1 1.4
2014-Sep-23 08:33N 45°17' W 073°56'6 6.1
2014-Sep-23 07:33N 45°13' W 074°03'1010.3
2014-Sep-23 06:33N 45°12' W 074°18'1110.8
2014-Sep-23 05:33N 45°05' W 074°30'85 7.6
2014-Sep-22 18:27N 44°15' W 076°05'1011.0
2014-Sep-22 17:33N 44°12' W 076°18'1110.9
2014-Sep-22 16:33N 44°03' W 076°26'  
2014-Sep-19 23:33N 45°58' W 083°54'9 8.9
2014-Sep-19 22:32N 46°05' W 084°01'  
Track history (hours):
 
Tides and Currents Weather Stations Pressure Air Temp Water Temp Dewpoint Dewpoint Depression Visibility Wind Speed Wind Dir Waves Ship Positions

CSL Niagara

ex J. W. McGiffin

Last reported at 2014-Sep-28 09:27 UTC. Time now 2014-Oct-01 14:22 UTC.
Position N 42°29' W 080°07'.

Length 225 m; draft 7.1 m.

Type: Cargo ship. MMSI: 316029000.

Date/timePositionNaut miles runAvg speedWind from/ knotsBaromVisibWave heightAir tempDewpointWater temp
2014-Sep-28 09:27N 42°29' W 080°07'1111.9
2014-Sep-28 08:33N 42°34' W 079°54'1211.9
2014-Sep-28 07:34N 42°40' W 079°40'1211.9
2014-Sep-28 06:33N 42°46' W 079°27'23 5.8
2014-Sep-28 02:34N 43°07' W 079°12'0 0.0
2014-Sep-28 01:12N 43°07' W 079°12'122 6.9
2014-Sep-27 07:25N 43°57' W 076°38'1011.6
2014-Sep-27 06:33N 44°03' W 076°27'1110.7
2014-Sep-27 05:34N 44°12' W 076°18'1010.3
2014-Sep-27 04:33N 44°15' W 076°04'84 7.4
2014-Sep-26 17:12N 45°05' W 074°30'6 8.6
2014-Sep-26 16:34N 45°09' W 074°23'6 5.7
2014-Sep-26 15:33N 45°13' W 074°17'9 8.8
2014-Sep-26 14:34N 45°13' W 074°05'8 8.0
2014-Sep-26 13:34N 45°18' W 073°56'1 1.2
2014-Sep-26 12:33N 45°19' W 073°55'6 6.0
2014-Sep-26 11:34N 45°23' W 073°49'7 6.9
2014-Sep-26 10:34N 45°24' W 073°39'4 3.6
2014-Sep-26 09:34N 45°24' W 073°34'3 3.1
2014-Sep-26 08:34N 45°26' W 073°30'4 3.7
2014-Sep-26 07:34N 45°30' W 073°31'3 3.4
2014-Sep-26 06:33N 45°33' W 073°31'6 6.5
2014-Sep-26 05:34N 45°39' W 073°28'9 8.6
2014-Sep-26 04:33N 45°47' W 073°22'9 9.1
2014-Sep-26 03:33N 45°54' W 073°14'9 9.1
2014-Sep-26 02:33N 46°02' W 073°10'9 8.6
2014-Sep-26 01:32N 46°06' W 072°58'9 8.9
2014-Sep-26 00:32N 46°13' W 072°49'9 9.5
2014-Sep-25 23:34N 46°16' W 072°37'9 9.0
2014-Sep-25 22:33N 46°23' W 072°28'9 8.7
2014-Sep-25 21:33N 46°26' W 072°17'8 8.4
2014-Sep-25 20:33N 46°33' W 072°09'7 7.3
2014-Sep-25 19:34N 46°36' W 071°59'4 0.1
2014-Sep-24 02:13N 46°38' W 071°55'910.5
2014-Sep-24 01:21N 46°34' W 072°07'910.9
2014-Sep-24 00:33N 46°27' W 072°15'1211.5
2014-Sep-23 23:33N 46°22' W 072°30'1010.3
2014-Sep-23 22:33N 46°16' W 072°42'1111.5
2014-Sep-23 21:33N 46°10' W 072°56'1111.0
2014-Sep-23 20:33N 46°03' W 073°09'1111.2
2014-Sep-23 19:33N 45°53' W 073°15'1212.0
2014-Sep-23 18:33N 45°43' W 073°26'1110.8
2014-Sep-23 17:33N 45°33' W 073°31'4 3.6
2014-Sep-23 16:33N 45°30' W 073°31'2 2.4
2014-Sep-23 15:33N 45°27' W 073°30'4 3.8
2014-Sep-23 14:33N 45°24' W 073°34'0 0.4
2014-Sep-23 13:33N 45°24' W 073°35'2 2.4
2014-Sep-23 12:33N 45°24' W 073°38'4 4.5
2014-Sep-23 11:33N 45°24' W 073°44'9 9.2
2014-Sep-23 10:33N 45°19' W 073°55'1 0.9
2014-Sep-23 09:33N 45°18' W 073°56'1 1.4
2014-Sep-23 08:33N 45°17' W 073°56'6 6.1
2014-Sep-23 07:33N 45°13' W 074°03'1010.3
2014-Sep-23 06:33N 45°12' W 074°18'1110.8
2014-Sep-23 05:33N 45°05' W 074°30'85 7.6
2014-Sep-22 18:27N 44°15' W 076°05'1011.0
2014-Sep-22 17:33N 44°12' W 076°18'1110.9
2014-Sep-22 16:33N 44°03' W 076°26'  
2014-Sep-19 23:33N 45°58' W 083°54'9 8.9
2014-Sep-19 22:32N 46°05' W 084°01'  

Dump ship's entire track history